createdAt,value
2019-03-15T00:02:26.521Z,4.20
2019-03-15T00:05:02.667Z,4.20
2019-03-15T00:07:33.061Z,4.20
2019-03-15T00:10:03.907Z,4.10
2019-03-15T00:12:36.528Z,4.10
2019-03-15T00:18:10.971Z,4.20
2019-03-15T00:20:47.639Z,4.10
2019-03-15T00:23:21.072Z,4.10
2019-03-15T00:25:51.329Z,4.00
2019-03-15T00:28:19.943Z,4.10
2019-03-15T00:30:48.540Z,4.10
2019-03-15T00:33:17.126Z,4.10
2019-03-15T00:35:45.727Z,4.10
2019-03-15T00:38:14.293Z,4.10
2019-03-15T00:40:42.890Z,4.10
2019-03-15T00:43:11.458Z,4.10
2019-03-15T00:45:40.043Z,4.10
2019-03-15T00:48:08.690Z,4.20
2019-03-15T00:50:37.301Z,4.30
2019-03-15T00:53:05.979Z,4.30
2019-03-15T00:55:56.932Z,4.40
2019-03-15T00:58:29.572Z,4.40
2019-03-15T01:00:59.507Z,4.40
2019-03-15T01:03:28.796Z,4.50
2019-03-15T01:06:02.783Z,4.60
2019-03-15T01:08:31.268Z,4.50
2019-03-15T01:10:59.850Z,4.60
2019-03-15T01:13:28.408Z,4.60
2019-03-15T01:15:56.999Z,4.60
2019-03-15T01:18:25.554Z,4.80
2019-03-15T01:20:54.122Z,4.80
2019-03-15T01:23:22.702Z,4.80
2019-03-15T01:25:51.260Z,4.70
2019-03-15T01:28:19.844Z,4.80
2019-03-15T01:30:48.433Z,4.80
2019-03-15T01:33:17.010Z,4.70
2019-03-15T01:35:45.565Z,4.60
2019-03-15T01:38:14.130Z,4.60
2019-03-15T01:40:42.686Z,4.70
2019-03-15T01:43:11.268Z,4.60
2019-03-15T01:45:39.823Z,4.50
2019-03-15T01:48:08.479Z,4.40
2019-03-15T01:50:37.120Z,4.40
2019-03-15T01:53:12.647Z,4.40
2019-03-15T01:58:38.513Z,4.50
2019-03-15T02:01:07.323Z,4.50
2019-03-15T02:03:36.163Z,4.50
2019-03-15T02:06:04.802Z,4.60
2019-03-15T02:08:34.375Z,4.60
2019-03-15T02:11:03.657Z,4.60
2019-03-15T02:13:34.576Z,4.60
2019-03-15T02:16:03.122Z,4.70
2019-03-15T02:18:31.720Z,4.80
2019-03-15T02:21:00.282Z,4.80
2019-03-15T02:23:28.871Z,4.80
2019-03-15T02:25:57.454Z,4.80
2019-03-15T02:28:26.121Z,4.80
2019-03-15T02:30:54.682Z,4.90
2019-03-15T02:33:23.311Z,4.90
2019-03-15T02:35:51.887Z,5.00
2019-03-15T02:38:20.490Z,5.10
2019-03-15T02:40:49.032Z,5.20
2019-03-15T02:43:19.098Z,5.20
2019-03-15T02:45:47.670Z,5.40
2019-03-15T02:48:16.256Z,5.50
2019-03-15T02:50:44.806Z,5.50
2019-03-15T02:53:13.394Z,5.50
2019-03-15T02:55:41.939Z,5.50
2019-03-15T02:58:10.533Z,5.50
2019-03-15T03:00:39.092Z,5.60
2019-03-15T03:03:07.638Z,5.60
2019-03-15T03:05:36.227Z,5.70
2019-03-15T03:08:04.847Z,5.60
2019-03-15T03:10:33.422Z,5.60
2019-03-15T03:13:09.114Z,5.70
2019-03-15T03:15:37.889Z,5.80
2019-03-15T03:18:07.206Z,5.90
2019-03-15T03:20:37.364Z,5.90
2019-03-15T03:23:08.565Z,6.00
2019-03-15T03:25:39.295Z,6.00
2019-03-15T03:28:07.918Z,6.00
2019-03-15T03:30:36.683Z,6.10
2019-03-15T03:33:05.295Z,6.10
2019-03-15T03:35:33.887Z,6.10
2019-03-15T03:38:02.656Z,6.20
2019-03-15T03:40:31.266Z,6.20
2019-03-15T03:42:59.827Z,6.20
2019-03-15T03:45:30.028Z,6.20
2019-03-15T03:48:00.062Z,6.20
2019-03-15T03:50:29.213Z,6.20
2019-03-15T03:52:57.838Z,6.20
2019-03-15T03:55:27.310Z,6.20
2019-03-15T03:57:55.863Z,6.20
2019-03-15T04:00:24.517Z,6.30
2019-03-15T04:02:53.523Z,6.30
2019-03-15T04:05:22.236Z,6.30
2019-03-15T04:07:50.859Z,6.30
2019-03-15T04:10:19.439Z,6.30
2019-03-15T04:12:48.085Z,6.30
2019-03-15T04:15:16.735Z,6.30
2019-03-15T04:17:45.404Z,6.30
2019-03-15T04:20:14.068Z,6.30
2019-03-15T04:22:42.629Z,6.30
2019-03-15T04:25:11.446Z,6.30
2019-03-15T04:27:40.067Z,6.40
2019-03-15T04:30:13.522Z,6.40
2019-03-15T04:32:42.076Z,6.40
2019-03-15T04:35:10.715Z,6.40
2019-03-15T04:37:39.279Z,6.40
2019-03-15T04:40:10.396Z,6.40
2019-03-15T04:42:38.942Z,6.40
2019-03-15T04:45:08.464Z,6.50
2019-03-15T04:47:37.019Z,6.40
2019-03-15T04:50:08.672Z,6.40
2019-03-15T04:52:37.218Z,6.40
2019-03-15T04:55:06.520Z,6.40
2019-03-15T04:57:35.104Z,6.40
2019-03-15T05:00:04.440Z,6.40
2019-03-15T05:02:33.022Z,6.40
2019-03-15T05:05:02.273Z,6.40
2019-03-15T05:07:30.982Z,6.40
2019-03-15T05:09:59.625Z,6.40
2019-03-15T05:12:28.246Z,6.40
2019-03-15T05:14:56.837Z,6.40
2019-03-15T05:17:25.485Z,6.40
2019-03-15T05:19:54.142Z,6.40
2019-03-15T05:22:22.713Z,6.50
2019-03-15T05:24:51.282Z,6.40
2019-03-15T05:27:19.901Z,6.40
2019-03-15T05:29:48.507Z,6.40
2019-03-15T05:32:17.090Z,6.40
2019-03-15T05:34:45.606Z,6.40
2019-03-15T05:37:14.194Z,6.40
2019-03-15T05:39:42.769Z,6.40
2019-03-15T05:42:11.580Z,6.50
2019-03-15T05:44:43.022Z,6.40
2019-03-15T05:47:11.607Z,6.40
2019-03-15T05:49:40.185Z,6.40
2019-03-15T05:52:08.799Z,6.40
2019-03-15T05:54:37.366Z,6.40
2019-03-15T05:57:05.961Z,6.40
2019-03-15T05:59:34.535Z,6.50
2019-03-15T06:02:03.126Z,6.50
2019-03-15T06:04:31.765Z,6.60
2019-03-15T06:07:00.354Z,6.60
2019-03-15T06:09:28.919Z,6.60
2019-03-15T06:11:57.526Z,6.60
2019-03-15T06:14:26.084Z,6.60
2019-03-15T06:16:54.672Z,6.60
2019-03-15T06:19:23.250Z,6.60
2019-03-15T06:21:51.845Z,6.60
2019-03-15T06:24:20.415Z,6.60
2019-03-15T06:26:49.000Z,6.60
2019-03-15T06:29:17.554Z,6.60
2019-03-15T06:31:46.132Z,6.70
2019-03-15T06:34:14.698Z,6.70
2019-03-15T06:36:43.250Z,6.70
2019-03-15T06:39:11.835Z,6.70
2019-03-15T06:41:40.383Z,6.70
2019-03-15T06:44:08.980Z,6.70
2019-03-15T06:46:37.522Z,6.70
2019-03-15T06:49:06.200Z,6.80
2019-03-15T06:51:34.759Z,6.80
2019-03-15T06:54:11.282Z,6.80
2019-03-15T06:56:33.646Z,6.80
2019-03-15T06:59:02.300Z,6.80
2019-03-15T07:01:30.866Z,6.80
2019-03-15T07:03:59.457Z,6.80
2019-03-15T07:06:28.010Z,6.90
2019-03-15T07:08:56.600Z,6.90
2019-03-15T07:11:25.137Z,6.90
2019-03-15T07:13:53.739Z,6.90
2019-03-15T07:16:22.281Z,7.00
2019-03-15T07:18:50.797Z,7.00
2019-03-15T07:21:19.374Z,7.00
2019-03-15T07:23:47.970Z,7.00
2019-03-15T07:26:16.601Z,7.10
2019-03-15T07:28:45.191Z,7.10
2019-03-15T07:31:13.763Z,7.10
2019-03-15T07:33:42.439Z,7.10
2019-03-15T07:36:10.989Z,7.10
2019-03-15T07:38:39.566Z,7.10
2019-03-15T07:41:08.424Z,7.10
2019-03-15T07:43:36.990Z,7.10
2019-03-15T07:46:05.536Z,7.20
2019-03-15T07:48:34.125Z,7.20
2019-03-15T07:51:02.698Z,7.20
2019-03-15T07:53:31.275Z,7.20
2019-03-15T07:55:59.827Z,7.20
2019-03-15T07:58:28.406Z,7.30
2019-03-15T08:00:57.055Z,7.30
2019-03-15T08:03:25.686Z,7.40
2019-03-15T08:05:54.171Z,7.30
2019-03-15T08:08:22.854Z,7.40
2019-03-15T08:10:54.752Z,7.40
2019-03-15T08:13:21.655Z,7.40
2019-03-15T08:15:50.209Z,7.40
2019-03-15T08:18:18.763Z,7.50
2019-03-15T08:20:47.359Z,7.50
2019-03-15T08:23:15.910Z,7.50
2019-03-15T08:25:44.489Z,7.60
2019-03-15T08:28:13.046Z,7.60
2019-03-15T08:30:41.619Z,7.60
2019-03-15T08:33:11.177Z,7.70
2019-03-15T08:35:39.850Z,7.70
2019-03-15T08:38:08.390Z,7.80
2019-03-15T08:40:37.042Z,7.80
2019-03-15T08:43:05.574Z,7.80
2019-03-15T08:45:34.149Z,7.80
2019-03-15T08:48:02.627Z,7.90
2019-03-15T08:50:31.197Z,7.90
2019-03-15T08:52:59.756Z,8.00
2019-03-15T08:55:28.331Z,8.00
2019-03-15T08:57:56.881Z,8.10
2019-03-15T09:00:25.450Z,8.10
2019-03-15T09:02:53.995Z,8.20
2019-03-15T09:05:22.636Z,8.30
2019-03-15T09:07:51.121Z,8.30
2019-03-15T09:10:23.656Z,8.40
2019-03-15T09:12:50.568Z,8.40
2019-03-15T09:15:19.204Z,8.40
2019-03-15T09:17:47.690Z,8.40
2019-03-15T09:20:16.527Z,8.50
2019-03-15T09:22:45.298Z,8.50
2019-03-15T09:25:19.879Z,8.50
2019-03-15T09:27:46.071Z,8.60
2019-03-15T09:30:23.152Z,8.70
2019-03-15T09:32:45.770Z,8.70
2019-03-15T09:35:14.506Z,8.80
2019-03-15T09:37:46.789Z,8.80
2019-03-15T09:40:16.336Z,8.90
2019-03-15T09:42:45.026Z,8.90
2019-03-15T09:45:17.706Z,9.00
2019-03-15T09:47:46.574Z,8.90
2019-03-15T09:50:26.521Z,9.00
2019-03-15T09:52:46.070Z,9.10
2019-03-15T09:55:14.978Z,9.10
2019-03-15T09:57:43.551Z,9.10
2019-03-15T10:00:18.931Z,9.20
2019-03-15T10:02:47.603Z,9.30
2019-03-15T10:05:16.283Z,9.30
2019-03-15T10:07:44.888Z,9.40
2019-03-15T10:10:19.321Z,9.40
2019-03-15T10:12:48.083Z,9.40
2019-03-15T10:15:17.165Z,9.40
2019-03-15T10:17:45.890Z,9.50
2019-03-15T10:20:15.070Z,9.50
2019-03-15T10:22:43.771Z,9.60
2019-03-15T10:25:18.166Z,9.70
2019-03-15T10:27:46.805Z,9.70
2019-03-15T10:30:17.383Z,9.70
2019-03-15T10:32:46.086Z,9.80
2019-03-15T10:35:14.564Z,9.80
2019-03-15T10:37:43.141Z,9.80
2019-03-15T10:40:16.584Z,9.90
2019-03-15T10:42:45.145Z,9.90
2019-03-15T10:45:13.833Z,10.10
2019-03-15T10:47:42.884Z,10.10
2019-03-15T10:50:14.330Z,10.20
2019-03-15T10:52:42.909Z,10.20
2019-03-15T10:55:11.602Z,10.20
2019-03-15T10:57:40.211Z,10.20
2019-03-15T11:00:14.778Z,10.20
2019-03-15T11:02:43.355Z,10.20
2019-03-15T11:05:12.044Z,10.20
2019-03-15T11:07:40.629Z,10.20
2019-03-15T11:10:10.709Z,10.10
2019-03-15T11:12:39.283Z,10.20
2019-03-15T11:15:12.915Z,10.20
2019-03-15T11:17:41.477Z,10.20
2019-03-15T11:20:12.028Z,10.20
2019-03-15T11:22:40.594Z,10.20
2019-03-15T11:25:10.317Z,10.30
2019-03-15T11:27:39.069Z,10.30
2019-03-15T11:30:09.953Z,10.30
2019-03-15T11:32:38.529Z,10.30
2019-03-15T11:35:08.460Z,10.30
2019-03-15T11:37:37.053Z,10.40
2019-03-15T11:40:08.621Z,10.40
2019-03-15T11:42:37.195Z,10.40
2019-03-15T11:45:07.505Z,10.40
2019-03-15T11:48:00.717Z,10.40
2019-03-15T11:50:09.414Z,10.30
2019-03-15T11:52:38.052Z,10.30
2019-03-15T11:55:08.281Z,10.30
2019-03-15T11:57:36.925Z,10.30
2019-03-15T12:00:11.154Z,10.30
2019-03-15T12:02:39.647Z,10.40
2019-03-15T12:05:08.559Z,10.40
2019-03-15T12:07:37.198Z,10.40
2019-03-15T12:10:08.107Z,10.40
2019-03-15T12:12:36.682Z,10.40
2019-03-15T12:15:08.305Z,10.30
2019-03-15T12:17:36.886Z,10.40
2019-03-15T12:20:08.172Z,10.40
2019-03-15T12:22:36.768Z,10.40
2019-03-15T12:25:13.950Z,10.40
2019-03-15T12:27:44.793Z,10.40
2019-03-15T12:30:14.138Z,10.50
2019-03-15T12:32:42.689Z,10.50
2019-03-15T12:35:12.399Z,10.70
2019-03-15T12:37:41.018Z,10.60
2019-03-15T12:40:13.694Z,10.60
2019-03-15T12:42:42.176Z,10.60
2019-03-15T12:45:11.687Z,10.60
2019-03-15T12:47:40.298Z,10.60
2019-03-15T12:50:15.235Z,10.60
2019-03-15T12:52:48.297Z,10.60
2019-03-15T12:55:14.706Z,10.70
2019-03-15T12:57:43.255Z,10.70
2019-03-15T13:00:14.920Z,10.60
2019-03-15T13:02:43.559Z,10.60
2019-03-15T13:05:12.186Z,10.70
2019-03-15T13:07:40.735Z,10.70
2019-03-15T13:10:14.266Z,10.60
2019-03-15T13:12:42.812Z,10.60
2019-03-15T13:15:13.586Z,10.60
2019-03-15T13:17:42.061Z,10.60
2019-03-15T13:20:12.599Z,10.60
2019-03-15T13:22:41.216Z,10.60
2019-03-15T13:25:10.926Z,10.70
2019-03-15T13:27:39.542Z,10.80
2019-03-15T13:30:11.033Z,10.80
2019-03-15T13:32:39.581Z,10.80
2019-03-15T13:35:08.599Z,10.70
2019-03-15T13:37:37.147Z,10.80
2019-03-15T13:40:14.751Z,10.80
2019-03-15T13:42:43.301Z,10.80
2019-03-15T13:45:13.020Z,10.80
2019-03-15T13:47:41.568Z,10.70
2019-03-15T13:50:17.858Z,10.80
2019-03-15T13:52:46.330Z,10.80
2019-03-15T13:55:14.903Z,10.90
2019-03-15T13:57:43.518Z,10.80
2019-03-15T14:00:17.847Z,10.80
2019-03-15T14:02:46.407Z,10.80
2019-03-15T14:05:15.027Z,10.80
2019-03-15T14:07:43.575Z,10.70
2019-03-15T14:10:16.876Z,10.70
2019-03-15T14:12:45.468Z,10.60
2019-03-15T14:15:16.220Z,10.60
2019-03-15T14:17:44.699Z,10.60
2019-03-15T14:20:13.814Z,10.50
2019-03-15T14:22:42.561Z,10.50
2019-03-15T14:25:22.276Z,10.50
2019-03-15T14:27:50.817Z,10.60
2019-03-15T14:30:19.470Z,10.60
2019-03-15T14:32:48.018Z,10.70
2019-03-15T14:35:16.513Z,10.60
2019-03-15T14:37:45.005Z,10.60
2019-03-15T14:40:13.699Z,10.60
2019-03-15T14:42:42.475Z,10.50
2019-03-15T14:45:12.306Z,10.50
2019-03-15T14:47:41.058Z,10.50
2019-03-15T14:50:10.857Z,10.50
2019-03-15T14:52:39.504Z,10.50
2019-03-15T14:55:17.298Z,10.50
2019-03-15T14:57:52.562Z,10.50
2019-03-15T15:00:18.138Z,10.50
2019-03-15T15:02:46.714Z,10.50
2019-03-15T15:05:15.453Z,10.50
2019-03-15T15:07:43.994Z,10.50
2019-03-15T15:10:14.660Z,10.50
2019-03-15T15:12:43.310Z,10.50
2019-03-15T15:15:13.939Z,10.50
2019-03-15T15:17:43.493Z,10.50
2019-03-15T15:20:20.803Z,10.50
2019-03-15T15:22:49.615Z,10.50
2019-03-15T15:25:23.229Z,10.50
2019-03-15T15:28:03.863Z,10.50
2019-03-15T15:30:22.368Z,10.40
2019-03-15T15:32:51.032Z,10.40
2019-03-15T15:35:19.591Z,10.40
2019-03-15T15:37:48.209Z,10.40
2019-03-15T15:40:17.828Z,10.40
2019-03-15T15:42:46.506Z,10.40
2019-03-15T15:45:15.151Z,10.40
2019-03-15T15:47:43.874Z,10.40
2019-03-15T15:50:13.782Z,10.40
2019-03-15T15:52:42.439Z,10.30
2019-03-15T15:55:12.440Z,10.40
2019-03-15T15:57:41.100Z,10.40
2019-03-15T16:00:19.454Z,10.30
2019-03-15T16:02:48.098Z,10.40
2019-03-15T16:05:16.796Z,10.30
2019-03-15T16:07:45.359Z,10.30
2019-03-15T16:10:18.611Z,10.30
2019-03-15T16:12:47.345Z,10.30
2019-03-15T16:15:17.229Z,10.30
2019-03-15T16:17:46.144Z,10.30
2019-03-15T16:20:14.870Z,10.30
2019-03-15T16:22:46.918Z,10.30
2019-03-15T16:25:15.657Z,10.30
2019-03-15T16:27:44.154Z,10.30
2019-03-15T16:30:16.902Z,10.20
2019-03-15T16:32:45.475Z,10.20
2019-03-15T16:35:14.489Z,10.20
2019-03-15T16:37:43.130Z,10.20
2019-03-15T16:40:12.826Z,10.20
2019-03-15T16:42:41.442Z,10.20
2019-03-15T16:45:16.043Z,10.20
2019-03-15T16:47:44.654Z,10.10
2019-03-15T16:50:13.766Z,10.10
2019-03-15T16:52:42.394Z,10.10
2019-03-15T16:55:11.997Z,10.10
2019-03-15T16:57:40.786Z,10.20
2019-03-15T17:00:14.493Z,10.20
2019-03-15T17:02:43.059Z,10.10
2019-03-15T17:05:15.179Z,10.10
2019-03-15T17:07:43.721Z,10.10
2019-03-15T17:10:17.107Z,10.10
2019-03-15T17:12:45.827Z,10.10
2019-03-15T17:15:19.350Z,10.10
2019-03-15T17:17:47.906Z,10.10
2019-03-15T17:20:16.483Z,10.10
2019-03-15T17:22:45.034Z,10.10
2019-03-15T17:25:13.613Z,10.10
2019-03-15T17:27:42.105Z,10.10
2019-03-15T17:30:17.963Z,10.10
2019-03-15T17:32:46.678Z,10.10
2019-03-15T17:35:16.698Z,10.10
2019-03-15T17:37:45.246Z,10.10
2019-03-15T17:40:16.904Z,10.10
2019-03-15T17:42:45.449Z,10.10
2019-03-15T17:45:14.106Z,10.10
2019-03-15T17:47:42.912Z,10.10
2019-03-15T17:50:15.999Z,10.10
2019-03-15T17:52:44.647Z,10.10
2019-03-15T17:55:13.970Z,10.10
2019-03-15T17:57:45.407Z,10.10
2019-03-15T18:00:31.826Z,10.10
2019-03-15T18:03:00.375Z,10.10
2019-03-15T18:05:29.095Z,10.10
2019-03-15T18:07:57.764Z,10.10
2019-03-15T18:10:26.373Z,10.10
2019-03-15T18:12:54.952Z,10.20
2019-03-15T18:15:23.521Z,10.20
2019-03-15T18:17:52.162Z,10.20
2019-03-15T18:20:20.742Z,10.20
2019-03-15T18:22:49.363Z,10.20
2019-03-15T18:25:18.020Z,10.20
2019-03-15T18:27:47.113Z,10.20
2019-03-15T18:30:16.526Z,10.20
2019-03-15T18:32:45.242Z,10.20
2019-03-15T18:35:14.362Z,10.10
2019-03-15T18:37:42.986Z,10.10
2019-03-15T18:40:18.394Z,10.10
2019-03-15T18:42:47.056Z,10.10
2019-03-15T18:45:17.634Z,10.10
2019-03-15T18:47:46.425Z,10.10
2019-03-15T18:50:23.676Z,10.10
2019-03-15T18:52:52.354Z,10.10
2019-03-15T18:55:20.998Z,10.10
2019-03-15T18:57:49.618Z,10.10
2019-03-15T19:00:19.645Z,10.10
2019-03-15T19:02:48.442Z,10.10
2019-03-15T19:05:17.158Z,10.10
2019-03-15T19:07:45.784Z,10.10
2019-03-15T19:10:15.212Z,10.10
2019-03-15T19:12:43.919Z,10.10
2019-03-15T19:15:17.325Z,10.10
2019-03-15T19:17:45.948Z,10.10
2019-03-15T19:20:15.435Z,10.10
2019-03-15T19:22:44.082Z,10.10
2019-03-15T19:25:13.361Z,10.10
2019-03-15T19:27:41.949Z,10.10
2019-03-15T19:30:15.423Z,10.10
2019-03-15T19:32:44.002Z,10.10
2019-03-15T19:35:12.638Z,10.10
2019-03-15T19:37:41.227Z,10.10
2019-03-15T19:40:15.222Z,10.10
2019-03-15T19:42:45.556Z,10.10
2019-03-15T19:45:17.441Z,10.10
2019-03-15T19:47:46.097Z,10.10
2019-03-15T19:50:15.792Z,10.10
2019-03-15T19:52:44.453Z,10.10
2019-03-15T19:55:14.139Z,10.10
2019-03-15T19:57:42.821Z,10.10
2019-03-15T20:00:15.487Z,10.10
2019-03-15T20:02:44.149Z,10.10
2019-03-15T20:05:12.928Z,10.10
2019-03-15T20:07:41.640Z,10.10
2019-03-15T20:10:16.513Z,10.10
2019-03-15T20:12:44.349Z,10.10
2019-03-15T20:15:14.907Z,10.10
2019-03-15T20:17:43.609Z,10.10
2019-03-15T20:20:14.008Z,10.10
2019-03-15T20:22:42.582Z,10.10
2019-03-15T20:25:13.446Z,10.10
2019-03-15T20:27:42.111Z,10.10
2019-03-15T20:30:26.198Z,10.10
2019-03-15T20:32:52.786Z,10.10
2019-03-15T20:35:21.389Z,10.10
2019-03-15T20:37:50.028Z,10.10
2019-03-15T20:40:18.576Z,10.10
2019-03-15T20:42:47.165Z,10.10
2019-03-15T20:45:27.614Z,10.10
2019-03-15T20:47:56.191Z,10.10
2019-03-15T20:50:24.818Z,10.10
2019-03-15T20:53:07.241Z,10.10
2019-03-15T20:55:23.622Z,10.10
2019-03-15T20:57:52.197Z,10.10
2019-03-15T21:00:34.657Z,10.10
2019-03-15T21:02:52.205Z,10.10
2019-03-15T21:05:20.839Z,10.10
2019-03-15T21:07:49.414Z,10.10
2019-03-15T21:10:18.414Z,10.10
2019-03-15T21:12:46.978Z,10.10
2019-03-15T21:15:16.117Z,10.10
2019-03-15T21:17:44.818Z,10.10
2019-03-15T21:20:14.740Z,10.10
2019-03-15T21:22:43.449Z,10.10
2019-03-15T21:25:12.042Z,10.10
2019-03-15T21:27:52.891Z,10.10
2019-03-15T21:30:19.793Z,10.00
2019-03-15T21:32:48.411Z,10.00
2019-03-15T21:35:17.023Z,10.00
2019-03-15T21:37:45.639Z,10.00
2019-03-15T21:40:15.575Z,10.00
2019-03-15T21:42:44.130Z,10.00
2019-03-15T21:45:12.879Z,10.00
2019-03-15T21:47:41.533Z,10.00
2019-03-15T21:50:20.385Z,10.00
2019-03-15T21:52:48.946Z,10.00
2019-03-15T21:55:17.580Z,10.00
2019-03-15T21:57:46.129Z,10.00
2019-03-15T22:00:19.763Z,10.00
2019-03-15T22:02:48.420Z,10.00
2019-03-15T22:05:16.985Z,10.00
2019-03-15T22:07:45.529Z,10.00
2019-03-15T22:10:17.541Z,10.00
2019-03-15T22:12:46.109Z,10.00
2019-03-15T22:15:14.907Z,10.00
2019-03-15T22:17:43.555Z,10.00
2019-03-15T22:20:16.238Z,10.00
2019-03-15T22:22:44.924Z,10.00
2019-03-15T22:25:17.712Z,10.00
2019-03-15T22:27:46.182Z,10.00
2019-03-15T22:30:15.208Z,10.00
2019-03-15T22:32:43.761Z,10.00
2019-03-15T22:35:14.084Z,10.00
2019-03-15T22:37:42.653Z,10.00
2019-03-15T22:40:13.244Z,10.00
2019-03-15T22:42:41.924Z,10.00
2019-03-15T22:45:11.843Z,10.00
2019-03-15T22:47:40.563Z,10.00
2019-03-15T22:50:11.064Z,10.00
2019-03-15T22:52:39.645Z,10.00
2019-03-15T22:55:09.923Z,10.00
2019-03-15T22:57:39.110Z,9.90
2019-03-15T23:00:10.787Z,9.90
2019-03-15T23:02:39.867Z,9.90
2019-03-15T23:05:08.521Z,9.90
2019-03-15T23:07:37.583Z,9.90
2019-03-15T23:10:08.747Z,9.90
2019-03-15T23:12:37.413Z,9.90
2019-03-15T23:15:08.490Z,9.90
2019-03-15T23:17:37.135Z,9.90
2019-03-15T23:20:07.988Z,9.90
2019-03-15T23:22:36.578Z,9.90
2019-03-15T23:25:06.697Z,9.90
2019-03-15T23:27:35.275Z,9.90
2019-03-15T23:30:05.683Z,9.90
2019-03-15T23:32:34.350Z,9.90
2019-03-15T23:35:03.002Z,9.90
2019-03-15T23:37:31.636Z,9.90
2019-03-15T23:40:00.424Z,9.80
2019-03-15T23:42:29.028Z,9.90
2019-03-15T23:44:57.573Z,9.80
2019-03-15T23:47:26.158Z,9.80
2019-03-15T23:49:54.715Z,9.80
2019-03-15T23:52:23.295Z,9.80
2019-03-15T23:54:51.855Z,9.80
2019-03-15T23:57:20.498Z,9.80
2019-03-15T23:59:49.051Z,9.80
